createdAt,value
2023-09-04T00:01:17.512Z,4.50
2023-09-04T00:03:50.217Z,5.35
2023-09-04T00:06:20.196Z,5.85
2023-09-04T00:08:51.881Z,5.90
2023-09-04T00:11:21.853Z,4.97
2023-09-04T00:13:51.777Z,6.53
2023-09-04T00:16:21.797Z,6.63
2023-09-04T00:18:54.317Z,5.63
2023-09-04T00:21:24.210Z,4.45
2023-09-04T00:23:54.103Z,5.55
2023-09-04T00:26:23.982Z,6.63
2023-09-04T00:28:53.821Z,4.93
2023-09-04T00:31:23.690Z,5.68
2023-09-04T00:33:56.632Z,5.10
2023-09-04T00:36:26.617Z,5.68
2023-09-04T00:38:56.499Z,5.13
2023-09-04T00:41:26.370Z,7.07
2023-09-04T00:43:56.225Z,4.90
2023-09-04T00:46:26.309Z,5.15
2023-09-04T00:48:58.866Z,5.80
2023-09-04T00:51:29.320Z,5.57
2023-09-04T00:53:59.419Z,6.25
2023-09-04T00:56:29.809Z,4.97
2023-09-04T00:59:00.064Z,4.97
2023-09-04T01:01:30.886Z,6.28
2023-09-04T01:04:03.443Z,5.47
2023-09-04T01:06:33.649Z,7.38
2023-09-04T01:09:04.331Z,7.90
2023-09-04T01:11:42.658Z,8.25
2023-09-04T01:14:17.546Z,7.32
2023-09-04T01:16:48.586Z,8.00
2023-09-04T01:19:21.380Z,6.80
2023-09-04T01:21:53.914Z,5.53
2023-09-04T01:24:23.798Z,5.60
2023-09-04T01:26:59.492Z,5.18
2023-09-04T01:29:34.633Z,14.50
2023-09-04T01:32:10.533Z,14.75
2023-09-04T01:34:45.186Z,11.63
2023-09-04T01:37:18.268Z,11.07
2023-09-04T01:39:49.914Z,11.38
2023-09-04T01:42:19.821Z,13.45
2023-09-04T01:44:49.685Z,13.00
2023-09-04T01:47:19.604Z,13.00
2023-09-04T01:49:50.342Z,15.35
2023-09-04T01:52:22.842Z,9.23
2023-09-04T01:54:52.868Z,8.93
2023-09-04T01:57:22.754Z,9.35
2023-09-04T01:59:52.613Z,9.18
2023-09-04T02:02:22.547Z,6.07
2023-09-04T02:04:52.408Z,7.20
2023-09-04T02:07:24.920Z,8.45
2023-09-04T02:09:54.793Z,7.55
2023-09-04T02:12:24.683Z,8.57
2023-09-04T02:14:55.117Z,10.80
2023-09-04T02:17:25.170Z,10.68
2023-09-04T02:19:55.032Z,13.25
2023-09-04T02:22:28.100Z,8.98
2023-09-04T02:24:57.958Z,8.02
2023-09-04T02:27:27.863Z,11.82
2023-09-04T02:29:57.706Z,12.05
2023-09-04T02:32:27.599Z,7.60
2023-09-04T02:34:57.728Z,7.22
2023-09-04T02:37:30.624Z,13.00
2023-09-04T02:40:00.982Z,7.95
2023-09-04T02:42:32.727Z,15.00
2023-09-04T02:45:02.579Z,15.35
2023-09-04T02:47:32.472Z,11.25
2023-09-04T02:50:02.639Z,10.77
2023-09-04T02:52:35.181Z,11.35
2023-09-04T02:55:05.705Z,8.40
2023-09-04T02:57:36.371Z,11.18
2023-09-04T03:00:07.713Z,6.70
2023-09-04T03:02:38.088Z,8.85
2023-09-04T03:05:09.854Z,8.82
2023-09-04T03:07:42.445Z,8.05
2023-09-04T03:10:12.930Z,9.57
2023-09-04T03:12:42.857Z,8.68
2023-09-04T03:15:13.654Z,8.20
2023-09-04T03:17:44.049Z,10.63
2023-09-04T03:20:20.731Z,7.25
2023-09-04T03:22:53.697Z,7.38
2023-09-04T03:25:23.628Z,8.38
2023-09-04T03:27:53.542Z,7.78
2023-09-04T03:30:23.515Z,9.02
2023-09-04T03:32:53.451Z,6.32
2023-09-04T03:35:23.372Z,9.88
2023-09-04T03:37:55.836Z,9.00
2023-09-04T03:40:27.375Z,6.70
2023-09-04T03:42:57.508Z,7.95
2023-09-04T03:45:27.669Z,6.97
2023-09-04T03:47:57.596Z,6.35
2023-09-04T03:50:27.571Z,7.72
2023-09-04T03:53:00.032Z,8.07
2023-09-04T03:55:29.949Z,10.45
2023-09-04T03:57:59.891Z,8.07
2023-09-04T04:00:32.366Z,7.53
2023-09-04T04:03:03.517Z,7.13
2023-09-04T04:05:33.437Z,10.35
2023-09-04T04:08:06.199Z,8.30
2023-09-04T04:10:36.061Z,11.00
2023-09-04T04:13:06.269Z,8.65
2023-09-04T04:15:36.145Z,7.15
2023-09-04T04:18:06.557Z,7.40
2023-09-04T04:20:36.482Z,7.30
2023-09-04T04:23:09.089Z,6.55
2023-09-04T04:25:41.175Z,8.25
2023-09-04T04:28:11.186Z,6.80
2023-09-04T04:30:41.059Z,7.30
2023-09-04T04:33:11.001Z,8.60
2023-09-04T04:35:40.970Z,7.10
2023-09-04T04:38:13.679Z,8.45
2023-09-04T04:40:43.575Z,9.13
2023-09-04T04:43:13.455Z,9.23
2023-09-04T04:45:44.664Z,11.60
2023-09-04T04:48:14.628Z,9.15
2023-09-04T04:50:44.664Z,8.02
2023-09-04T04:53:17.120Z,13.52
2023-09-04T04:55:47.242Z,9.23
2023-09-04T04:58:17.225Z,8.82
2023-09-04T05:00:47.165Z,7.18
2023-09-04T05:03:17.198Z,10.60
2023-09-04T05:05:50.191Z,10.85
2023-09-04T05:08:22.876Z,9.05
2023-09-04T05:11:03.893Z,10.25
2023-09-04T05:13:34.415Z,8.50
2023-09-04T05:16:05.993Z,8.70
2023-09-04T05:18:36.590Z,7.28
2023-09-04T05:21:08.439Z,6.70
2023-09-04T05:23:41.089Z,7.65
2023-09-04T05:26:11.112Z,6.53
2023-09-04T05:28:41.162Z,7.32
2023-09-04T05:31:11.143Z,9.70
2023-09-04T05:33:41.047Z,8.20
2023-09-04T05:36:12.282Z,6.47
2023-09-04T05:38:44.756Z,10.25
2023-09-04T05:41:14.607Z,9.80
2023-09-04T05:43:44.537Z,6.35
2023-09-04T05:46:14.456Z,8.45
2023-09-04T05:48:44.384Z,5.63
2023-09-04T05:51:14.660Z,6.55
2023-09-04T05:53:47.194Z,10.95
2023-09-04T05:56:21.483Z,5.85
2023-09-04T05:58:53.271Z,8.15
2023-09-04T06:01:25.281Z,6.40
2023-09-04T06:03:55.583Z,8.35
2023-09-04T06:06:26.420Z,5.63
2023-09-04T06:08:58.959Z,7.45
2023-09-04T06:11:28.832Z,7.38
2023-09-04T06:13:58.758Z,8.32
2023-09-04T06:16:28.641Z,9.77
2023-09-04T06:18:58.690Z,9.52
2023-09-04T06:21:28.532Z,6.68
2023-09-04T06:24:08.421Z,8.43
2023-09-04T06:26:38.284Z,8.55
2023-09-04T06:29:08.213Z,6.28
2023-09-04T06:31:38.126Z,8.20
2023-09-04T06:34:08.159Z,9.60
2023-09-04T06:36:38.014Z,9.00
2023-09-04T06:39:10.563Z,10.63
2023-09-04T06:41:40.401Z,10.77
2023-09-04T06:44:10.296Z,7.82
2023-09-04T06:46:40.266Z,8.05
2023-09-04T06:49:10.210Z,6.43
2023-09-04T06:51:40.587Z,8.70
2023-09-04T06:54:13.502Z,9.43
2023-09-04T06:56:43.358Z,8.23
2023-09-04T06:59:13.270Z,13.93
2023-09-04T07:01:43.315Z,10.57
2023-09-04T07:04:13.334Z,6.50
2023-09-04T07:06:43.208Z,6.35
2023-09-04T07:09:15.699Z,7.82
2023-09-04T07:11:45.605Z,5.68
2023-09-04T07:14:15.529Z,6.07
2023-09-04T07:16:57.764Z,6.57
2023-09-04T07:19:35.497Z,5.97
2023-09-04T07:22:05.505Z,8.00
2023-09-04T07:24:38.204Z,6.75
2023-09-04T07:27:08.219Z,7.70
2023-09-04T07:29:38.113Z,5.05
2023-09-04T07:32:08.316Z,6.63
2023-09-04T07:34:38.243Z,5.65
2023-09-04T07:37:08.148Z,4.53
2023-09-04T07:39:40.728Z,7.90
2023-09-04T07:42:10.770Z,5.72
2023-09-04T07:44:40.676Z,5.85
2023-09-04T07:47:10.829Z,14.93
2023-09-04T07:49:40.776Z,5.57
2023-09-04T07:52:10.730Z,6.68
2023-09-04T07:54:43.613Z,6.00
2023-09-04T07:57:13.504Z,5.15
2023-09-04T07:59:43.431Z,6.15
2023-09-04T08:02:14.975Z,4.90
2023-09-04T08:04:45.136Z,5.10
2023-09-04T08:07:15.167Z,5.93
2023-09-04T08:09:47.795Z,7.07
2023-09-04T08:12:17.772Z,4.38
2023-09-04T08:14:49.149Z,5.70
2023-09-04T08:17:19.348Z,5.20
2023-09-04T08:19:52.209Z,3.95
2023-09-04T08:22:23.113Z,5.65
2023-09-04T08:24:57.296Z,5.05
2023-09-04T08:27:27.197Z,4.60
2023-09-04T08:30:00.181Z,4.18
2023-09-04T08:32:30.201Z,5.22
2023-09-04T08:35:00.356Z,7.95
2023-09-04T08:37:30.302Z,5.53
2023-09-04T08:40:03.098Z,4.65
2023-09-04T08:42:33.258Z,5.82
2023-09-04T08:45:04.058Z,6.68
2023-09-04T08:47:35.014Z,5.95
2023-09-04T08:50:06.300Z,5.95
2023-09-04T08:52:36.310Z,5.00
2023-09-04T08:55:09.558Z,4.22
2023-09-04T08:57:41.262Z,5.37
2023-09-04T09:00:13.716Z,5.05
2023-09-04T09:02:45.254Z,5.40
2023-09-04T09:05:19.448Z,4.03
2023-09-04T09:10:25.154Z,5.03
2023-09-04T09:12:55.061Z,4.75
2023-09-04T09:15:25.008Z,4.72
2023-09-04T09:17:57.361Z,3.67
2023-09-04T09:20:34.091Z,3.33
2023-09-04T09:23:06.238Z,3.92
2023-09-04T09:25:40.640Z,4.35
2023-09-04T09:28:12.081Z,4.35
2023-09-04T09:30:43.487Z,5.78
2023-09-04T09:33:17.183Z,3.88
2023-09-04T09:35:47.230Z,3.45
2023-09-04T09:38:17.086Z,3.40
2023-09-04T09:40:50.671Z,3.22
2023-09-04T09:43:20.591Z,4.90
2023-09-04T09:45:53.583Z,3.58
2023-09-04T09:48:25.741Z,5.20
2023-09-04T09:50:56.060Z,3.80
2023-09-04T09:53:25.912Z,3.67
2023-09-04T09:55:59.306Z,5.13
2023-09-04T09:58:29.317Z,3.65
2023-09-04T10:00:59.523Z,4.43
2023-09-04T10:03:29.577Z,5.18
2023-09-04T10:05:59.940Z,4.00
2023-09-04T10:08:29.937Z,3.42
2023-09-04T10:11:03.639Z,6.20
2023-09-04T10:13:37.922Z,3.28
2023-09-04T10:16:14.451Z,6.43
2023-09-04T10:18:47.870Z,4.13
2023-09-04T10:21:20.962Z,3.40
2023-09-04T10:23:56.138Z,3.17
2023-09-04T10:26:37.217Z,2.80
2023-09-04T10:29:11.095Z,3.38
2023-09-04T10:31:42.083Z,5.03
2023-09-04T10:34:12.855Z,3.63
2023-09-04T10:36:43.730Z,4.47
2023-09-04T10:39:13.695Z,4.80
2023-09-04T10:41:46.774Z,3.65
2023-09-04T10:44:52.470Z,4.47
2023-09-04T10:47:23.130Z,3.20
2023-09-04T10:49:53.539Z,4.90
2023-09-04T10:52:24.755Z,3.28
2023-09-04T10:55:15.053Z,6.93
2023-09-04T10:57:59.996Z,4.47
2023-09-04T11:00:32.037Z,3.28
2023-09-04T11:03:16.703Z,3.03
2023-09-04T11:06:21.486Z,3.00
2023-09-04T11:08:55.600Z,2.95
2023-09-04T11:14:07.517Z,3.47
2023-09-04T11:16:42.040Z,3.03
2023-09-04T11:19:18.383Z,2.78
2023-09-04T11:21:49.361Z,3.58
2023-09-04T11:24:21.505Z,2.83
2023-09-04T11:26:51.379Z,2.88
2023-09-04T11:29:24.107Z,4.32
2023-09-04T11:32:06.698Z,3.70
2023-09-04T11:34:38.233Z,4.80
2023-09-04T11:37:08.544Z,4.10
2023-09-04T11:42:29.479Z,3.13
2023-09-04T11:45:02.017Z,3.47
2023-09-04T11:47:32.354Z,2.78
2023-09-04T11:50:02.385Z,4.75
2023-09-04T11:52:32.705Z,2.85
2023-09-04T11:55:02.966Z,3.92
2023-09-04T11:57:32.845Z,5.15
2023-09-04T12:00:08.286Z,2.85
2023-09-04T12:02:43.979Z,4.85
2023-09-04T12:05:14.861Z,3.55
2023-09-04T12:07:45.013Z,2.95
2023-09-04T12:10:15.220Z,3.17
2023-09-04T12:12:46.131Z,2.92
2023-09-04T12:15:28.909Z,3.47
2023-09-04T12:18:01.363Z,4.25
2023-09-04T12:20:35.324Z,3.85
2023-09-04T12:23:05.977Z,3.92
2023-09-04T12:25:40.544Z,3.25
2023-09-04T12:28:13.250Z,2.60
2023-09-04T12:30:49.172Z,3.17
2023-09-04T12:33:20.276Z,2.80
2023-09-04T12:35:58.297Z,2.75
2023-09-04T12:38:28.342Z,2.90
2023-09-04T12:40:59.591Z,3.15
2023-09-04T12:43:29.540Z,2.83
2023-09-04T12:46:02.631Z,4.45
2023-09-04T12:48:32.743Z,2.65
2023-09-04T12:51:02.685Z,2.30
2023-09-04T12:53:32.578Z,3.10
2023-09-04T12:56:03.463Z,2.55
2023-09-04T12:58:34.421Z,3.08
2023-09-04T13:01:08.217Z,3.83
2023-09-04T13:03:38.199Z,3.13
2023-09-04T13:06:08.761Z,2.63
2023-09-04T13:08:38.690Z,3.20
2023-09-04T13:11:08.612Z,3.00
2023-09-04T13:13:39.908Z,4.50
2023-09-04T13:16:12.571Z,2.33
2023-09-04T13:18:42.418Z,2.78
2023-09-04T13:21:12.367Z,3.20
2023-09-04T13:23:42.321Z,3.05
2023-09-04T13:26:12.189Z,2.72
2023-09-04T13:28:42.058Z,3.30
2023-09-04T13:31:17.060Z,2.78
2023-09-04T13:33:47.048Z,2.60
2023-09-04T13:36:17.739Z,3.05
2023-09-04T13:38:47.590Z,3.05
2023-09-04T13:41:17.582Z,2.50
2023-09-04T13:43:47.488Z,3.45
2023-09-04T13:46:19.986Z,3.78
2023-09-04T13:48:49.850Z,3.95
2023-09-04T13:51:21.226Z,2.85
2023-09-04T13:53:51.089Z,3.60
2023-09-04T13:56:20.949Z,2.58
2023-09-04T13:58:52.365Z,2.90
2023-09-04T14:01:24.860Z,3.83
2023-09-04T14:03:54.824Z,3.92
2023-09-04T14:06:24.906Z,4.60
2023-09-04T14:08:54.773Z,2.22
2023-09-04T14:11:24.711Z,2.40
2023-09-04T14:13:54.682Z,2.30
2023-09-04T14:16:27.302Z,4.07
2023-09-04T14:19:04.176Z,4.07
2023-09-04T14:21:35.486Z,5.90
2023-09-04T14:24:05.544Z,3.30
2023-09-04T14:26:35.417Z,2.38
2023-09-04T14:29:05.815Z,3.63
2023-09-04T14:31:38.341Z,2.80
2023-09-04T14:34:09.434Z,4.32
2023-09-04T14:36:43.160Z,2.90
2023-09-04T14:39:19.885Z,3.67
2023-09-04T14:41:51.141Z,2.85
2023-09-04T14:44:21.042Z,2.75
2023-09-04T14:46:54.452Z,3.42
2023-09-04T14:49:24.801Z,3.15
2023-09-04T14:51:54.680Z,2.95
2023-09-04T14:54:24.739Z,2.92
2023-09-04T14:56:54.602Z,2.30
2023-09-04T14:59:24.822Z,2.95
2023-09-04T15:01:57.361Z,4.25
2023-09-04T15:04:30.106Z,2.47
2023-09-04T15:07:00.025Z,4.47
2023-09-04T15:09:29.949Z,2.83
2023-09-04T15:11:59.882Z,3.97
2023-09-04T15:14:29.776Z,4.13
2023-09-04T15:17:02.269Z,3.08
2023-09-04T15:19:32.519Z,3.00
2023-09-04T15:22:02.491Z,3.45
2023-09-04T15:24:32.479Z,3.28
2023-09-04T15:27:02.462Z,2.72
2023-09-04T15:29:32.352Z,3.97
2023-09-04T15:32:05.033Z,4.10
2023-09-04T15:34:38.464Z,2.85
2023-09-04T15:37:08.718Z,3.58
2023-09-04T15:39:38.912Z,2.88
2023-09-04T15:42:13.729Z,3.33
2023-09-04T15:44:43.774Z,3.78
2023-09-04T15:47:16.467Z,3.28
2023-09-04T15:49:46.440Z,3.30
2023-09-04T15:52:16.349Z,3.03
2023-09-04T15:54:46.249Z,3.80
2023-09-04T15:57:16.260Z,3.10
2023-09-04T15:59:46.135Z,2.53
2023-09-04T16:02:19.094Z,4.85
2023-09-04T16:04:48.976Z,2.97
2023-09-04T16:07:18.899Z,4.20
2023-09-04T16:09:48.765Z,4.78
2023-09-04T16:12:18.717Z,4.25
2023-09-04T16:14:48.693Z,3.22
2023-09-04T16:17:22.432Z,3.17
2023-09-04T16:19:52.409Z,4.10
2023-09-04T16:22:22.349Z,4.18
2023-09-04T16:24:52.387Z,2.90
2023-09-04T16:27:22.365Z,5.15
2023-09-04T16:29:52.280Z,4.10
2023-09-04T16:32:24.919Z,3.25
2023-09-04T16:34:55.591Z,3.45
2023-09-04T16:37:25.570Z,2.78
2023-09-04T16:39:55.511Z,3.53
2023-09-04T16:42:25.465Z,4.68
2023-09-04T16:44:55.364Z,2.92
2023-09-04T16:47:27.875Z,3.15
2023-09-04T16:49:57.863Z,3.08
2023-09-04T16:52:27.816Z,4.43
2023-09-04T16:54:57.918Z,3.35
2023-09-04T16:57:28.291Z,4.25
2023-09-04T16:59:58.155Z,3.40
2023-09-04T17:02:30.668Z,5.60
2023-09-04T17:05:01.557Z,4.82
2023-09-04T17:07:31.475Z,3.13
2023-09-04T17:10:01.849Z,4.97
2023-09-04T17:12:32.666Z,2.83
2023-09-04T17:15:02.559Z,4.00
2023-09-04T17:17:35.076Z,5.18
2023-09-04T17:20:05.249Z,3.83
2023-09-04T17:22:36.577Z,7.00
2023-09-04T17:25:07.460Z,3.63
2023-09-04T17:27:37.349Z,4.65
2023-09-04T17:30:09.245Z,5.75
2023-09-04T17:32:41.776Z,4.45
2023-09-04T17:35:13.421Z,3.90
2023-09-04T17:37:43.293Z,4.75
2023-09-04T17:40:14.343Z,5.90
2023-09-04T17:42:44.236Z,3.70
2023-09-04T17:45:14.237Z,4.07
2023-09-04T17:47:46.807Z,3.35
2023-09-04T17:50:16.729Z,4.10
2023-09-04T17:52:46.846Z,3.42
2023-09-04T17:55:18.445Z,4.72
2023-09-04T17:57:48.809Z,4.15
2023-09-04T18:00:21.210Z,4.88
2023-09-04T18:02:54.117Z,7.90
2023-09-04T18:05:24.034Z,5.70
2023-09-04T18:07:53.984Z,3.72
2023-09-04T18:10:23.888Z,4.93
2023-09-04T18:12:53.792Z,4.50
2023-09-04T18:15:24.228Z,3.78
2023-09-04T18:17:56.769Z,4.63
2023-09-04T18:20:26.676Z,4.90
2023-09-04T18:22:56.557Z,5.65
2023-09-04T18:25:26.964Z,6.57
2023-09-04T18:27:56.950Z,7.40
2023-09-04T18:30:26.829Z,4.00
2023-09-04T18:32:59.563Z,6.20
2023-09-04T18:35:29.535Z,5.30
2023-09-04T18:37:59.818Z,4.63
2023-09-04T18:40:29.734Z,5.40
2023-09-04T18:42:59.602Z,4.85
2023-09-04T18:45:29.526Z,5.43
2023-09-04T18:48:02.074Z,5.15
2023-09-04T18:50:32.032Z,7.07
2023-09-04T18:53:02.700Z,5.13
2023-09-04T18:55:46.459Z,4.60
2023-09-04T18:58:20.598Z,4.72
2023-09-04T19:00:50.512Z,3.85
2023-09-04T19:03:23.022Z,6.95
2023-09-04T19:05:52.974Z,5.93
2023-09-04T19:08:25.047Z,3.83
2023-09-04T19:10:57.042Z,4.13
2023-09-04T19:13:27.108Z,5.03
2023-09-04T19:15:58.519Z,3.60
2023-09-04T19:18:31.353Z,4.32
2023-09-04T19:21:01.572Z,6.18
2023-09-04T19:23:33.471Z,7.38
2023-09-04T19:26:04.288Z,4.20
2023-09-04T19:28:49.309Z,5.95
2023-09-04T19:31:22.267Z,5.35
2023-09-04T19:33:57.118Z,6.40
2023-09-04T19:36:28.746Z,4.45
2023-09-04T19:39:02.422Z,4.50
2023-09-04T19:41:40.152Z,7.47
2023-09-04T19:44:11.140Z,4.40
2023-09-04T19:46:43.780Z,5.40
2023-09-04T19:49:20.252Z,3.97
2023-09-04T19:51:52.206Z,5.32
2023-09-04T19:54:23.088Z,5.35
2023-09-04T19:56:59.202Z,4.43
2023-09-04T19:59:35.160Z,4.35
2023-09-04T20:02:09.821Z,5.40
2023-09-04T20:05:01.584Z,4.60
2023-09-04T20:07:37.673Z,4.68
2023-09-04T20:10:17.524Z,5.90
2023-09-04T20:13:11.444Z,5.13
2023-09-04T20:15:46.758Z,6.43
2023-09-04T20:18:26.982Z,5.70
2023-09-04T20:21:04.119Z,4.82
2023-09-04T20:23:41.568Z,4.55
2023-09-04T20:26:35.270Z,6.07
2023-09-04T20:29:30.818Z,5.18
2023-09-04T20:32:24.234Z,5.07
2023-09-04T20:34:55.414Z,5.63
2023-09-04T20:37:37.024Z,8.98
2023-09-04T20:40:12.234Z,10.35
2023-09-04T20:42:49.088Z,4.90
2023-09-04T20:47:56.961Z,6.65
2023-09-04T20:50:32.404Z,4.70
2023-09-04T20:53:15.499Z,5.28
2023-09-04T20:55:53.188Z,4.93
2023-09-04T20:58:31.138Z,5.25
2023-09-04T21:01:10.626Z,4.88
2023-09-04T21:03:44.809Z,5.18
2023-09-04T21:06:17.114Z,8.02
2023-09-04T21:08:47.292Z,4.50
2023-09-04T21:11:26.109Z,5.28
2023-09-04T21:14:12.091Z,4.95
2023-09-04T21:16:55.317Z,5.28
2023-09-04T21:19:43.588Z,9.32
2023-09-04T21:22:28.876Z,4.80
2023-09-04T21:25:32.073Z,6.05
2023-09-04T21:28:16.042Z,5.35
2023-09-04T21:30:58.428Z,5.18
2023-09-04T21:33:42.482Z,4.60
2023-09-04T21:36:24.846Z,5.07
2023-09-04T21:39:07.279Z,4.88
2023-09-04T21:41:52.274Z,9.55
2023-09-04T21:44:34.652Z,6.60
2023-09-04T21:47:17.040Z,5.50
2023-09-04T21:49:59.555Z,5.22
2023-09-04T21:52:41.944Z,7.55
2023-09-04T21:55:24.600Z,5.65
2023-09-04T21:58:09.583Z,4.85
2023-09-04T22:00:51.961Z,5.78
2023-09-04T22:03:34.553Z,4.85
2023-09-04T22:06:17.270Z,6.32
2023-09-04T22:08:59.644Z,6.13
2023-09-04T22:11:42.056Z,4.40
2023-09-04T22:14:27.013Z,6.07
2023-09-04T22:17:09.396Z,6.00
2023-09-04T22:19:51.897Z,6.57
2023-09-04T22:22:34.250Z,4.30
2023-09-04T22:25:16.638Z,5.38
2023-09-04T22:27:58.988Z,6.97
2023-09-04T22:30:44.103Z,5.88
2023-09-04T22:33:26.776Z,4.93
2023-09-04T22:36:09.410Z,4.80
2023-09-04T22:38:51.805Z,4.80
2023-09-04T22:41:34.178Z,4.72
2023-09-04T22:44:16.576Z,5.28
2023-09-04T22:47:01.580Z,5.55
2023-09-04T22:49:44.008Z,6.80
2023-09-04T22:52:27.567Z,5.25
2023-09-04T22:55:10.062Z,6.57
2023-09-04T22:57:53.060Z,3.83
2023-09-04T23:00:35.512Z,5.43
2023-09-04T23:03:20.639Z,4.43
2023-09-04T23:06:03.029Z,4.45
2023-09-04T23:08:45.422Z,4.28
2023-09-04T23:11:27.865Z,4.65
2023-09-04T23:14:10.325Z,4.60
2023-09-04T23:16:52.793Z,4.10
2023-09-04T23:19:37.887Z,4.53
2023-09-04T23:22:08.081Z,4.40
2023-09-04T23:24:38.810Z,5.43
2023-09-04T23:27:12.766Z,4.85
2023-09-04T23:32:26.672Z,4.80
2023-09-04T23:35:11.185Z,6.07
2023-09-04T23:37:56.651Z,5.05
2023-09-04T23:40:39.022Z,4.68
2023-09-04T23:43:21.451Z,4.50
2023-09-04T23:45:52.140Z,3.60
2023-09-04T23:48:22.481Z,5.05
2023-09-04T23:50:59.396Z,4.00
2023-09-04T23:53:29.620Z,5.90
2023-09-04T23:55:59.642Z,5.53
2023-09-04T23:58:29.499Z,5.50
